Google Maps JavaScript API Example
Pilot Flight Report # 93827 Submitted by : AST154 on 2020-03-29
Date: 2020-03-29Aircraft: Boeing 737-800
Flight No.: AST20205Distance (Nm): 867.26
Departure: KMSY - Armstrong New Orleans InternationalDestination: KBWI - Baltimore-Washington International
 TimeFuelWeightSpeeds  
Out (Taxi)1412Z26609 lbs135170 lbs Flight RulesIFR
Off (Takeoff)1418Z 134607 lbs161 ktsFlight Level35000
On (Landing)1612Z 115954 lbs138 ktsVSTD-256 ft/min
In (Ramp)1617Z7041 lbs115604 lbs ZFW108561 lbs
Flight1.90  -  1:5418651 lbs  Pax0
Block2.08  -  2:0519568 lbs  Cargo0
Departure WeatherKMSY 291408Z 00008KT 62SM FEW035 FEW050 29/11 A3012
Destination WeatherKBWI 291617Z 13803KT 19SM FEW061 SCT404 16/12 A2979
Flight CommentsGreat flight...